createdAt,value
2019-01-13T00:01:15.048Z,99.70
2019-01-13T00:02:58.271Z,99.60
2019-01-13T00:04:41.508Z,99.70
2019-01-13T00:06:24.919Z,99.90
2019-01-13T00:08:08.135Z,99.90
2019-01-13T00:09:51.367Z,99.90
2019-01-13T00:11:34.621Z,99.50
2019-01-13T00:13:17.910Z,99.90
2019-01-13T00:15:01.154Z,99.90
2019-01-13T00:16:44.371Z,99.90
2019-01-13T00:18:27.667Z,99.90
2019-01-13T00:20:11.715Z,99.90
2019-01-13T00:21:54.934Z,99.90
2019-01-13T00:23:38.156Z,99.50
2019-01-13T00:25:21.380Z,99.30
2019-01-13T00:27:04.667Z,99.20
2019-01-13T00:28:47.888Z,99.20
2019-01-13T00:30:31.171Z,99.30
2019-01-13T00:32:14.387Z,99.50
2019-01-13T00:33:57.612Z,99.60
2019-01-13T00:35:40.822Z,99.80
2019-01-13T00:37:24.036Z,99.90
2019-01-13T00:39:07.327Z,99.90
2019-01-13T00:40:50.542Z,99.80
2019-01-13T00:42:33.783Z,99.80
2019-01-13T00:44:16.991Z,99.70
2019-01-13T00:46:00.232Z,99.60
2019-01-13T00:47:43.522Z,99.90
2019-01-13T00:49:26.730Z,99.90
2019-01-13T00:51:09.960Z,99.90
2019-01-13T00:52:53.171Z,99.90
2019-01-13T00:54:36.404Z,99.90
2019-01-13T00:56:20.254Z,99.90
2019-01-13T00:58:03.482Z,99.80
2019-01-13T00:59:46.705Z,99.90
2019-01-13T01:01:29.952Z,99.70
2019-01-13T01:03:13.158Z,99.90
2019-01-13T01:04:56.558Z,99.90
2019-01-13T01:06:41.475Z,99.60
2019-01-13T01:08:24.694Z,99.50
2019-01-13T01:10:11.016Z,99.40
2019-01-13T01:11:54.430Z,99.40
2019-01-13T01:13:37.724Z,98.90
2019-01-13T01:15:21.017Z,99.30
2019-01-13T01:17:04.295Z,98.70
2019-01-13T01:18:47.580Z,99.10
2019-01-13T01:20:30.816Z,99.60
2019-01-13T01:22:14.091Z,99.10
2019-01-13T01:23:57.303Z,98.90
2019-01-13T01:25:40.525Z,98.70
2019-01-13T01:27:23.773Z,98.80
2019-01-13T01:29:07.065Z,99.60
2019-01-13T01:30:50.279Z,99.20
2019-01-13T01:32:33.731Z,99.10
2019-01-13T01:34:17.127Z,99.00
2019-01-13T01:36:00.367Z,98.60
2019-01-13T01:37:43.847Z,98.70
2019-01-13T01:39:27.053Z,99.50
2019-01-13T01:41:10.274Z,98.60
2019-01-13T01:42:53.525Z,99.10
2019-01-13T01:44:36.714Z,98.80
2019-01-13T01:46:21.174Z,98.90
2019-01-13T01:48:04.899Z,99.20
2019-01-13T01:49:48.220Z,98.90
2019-01-13T01:51:31.482Z,98.90
2019-01-13T01:53:14.784Z,98.80
2019-01-13T01:54:57.990Z,99.00
2019-01-13T01:56:41.219Z,98.90
2019-01-13T01:58:24.443Z,98.40
2019-01-13T02:00:14.015Z,98.20
2019-01-13T02:01:57.496Z,98.60
2019-01-13T02:03:40.718Z,98.60
2019-01-13T02:05:24.019Z,98.40
2019-01-13T02:07:07.363Z,98.50
2019-01-13T02:08:50.611Z,98.30
2019-01-13T02:10:33.893Z,98.40
2019-01-13T02:12:17.267Z,98.00
2019-01-13T02:14:00.632Z,98.40
2019-01-13T02:15:44.366Z,98.70
2019-01-13T02:17:27.799Z,98.80
2019-01-13T02:19:11.552Z,99.20
2019-01-13T02:20:55.136Z,98.60
2019-01-13T02:22:39.363Z,98.90
2019-01-13T02:24:23.661Z,99.30
2019-01-13T02:26:08.199Z,99.00
2019-01-13T02:27:51.434Z,99.00
2019-01-13T02:29:34.651Z,99.30
2019-01-13T02:31:17.873Z,99.50
2019-01-13T02:33:01.108Z,98.80
2019-01-13T02:34:44.318Z,98.50
2019-01-13T02:36:27.530Z,98.60
2019-01-13T02:38:10.753Z,98.70
2019-01-13T02:39:53.981Z,98.90
2019-01-13T02:41:37.192Z,98.50
2019-01-13T02:43:20.419Z,98.90
2019-01-13T02:45:06.276Z,98.90
2019-01-13T02:46:49.546Z,99.50
2019-01-13T02:48:32.756Z,98.90
2019-01-13T02:50:15.996Z,99.10
2019-01-13T02:51:59.209Z,99.60
2019-01-13T02:53:42.427Z,99.50
2019-01-13T02:55:26.338Z,99.40
2019-01-13T02:57:09.553Z,99.50
2019-01-13T02:58:52.768Z,99.50
2019-01-13T03:00:35.997Z,99.30
2019-01-13T03:02:19.218Z,99.30
2019-01-13T03:04:02.526Z,99.70
2019-01-13T03:05:45.752Z,99.80
2019-01-13T03:07:28.959Z,99.90
2019-01-13T03:09:12.192Z,99.90
2019-01-13T03:10:55.411Z,99.90
2019-01-13T03:12:38.637Z,99.90
2019-01-13T03:14:21.864Z,99.90
2019-01-13T03:16:05.085Z,99.90
2019-01-13T03:17:48.647Z,99.90
2019-01-13T03:19:31.867Z,99.90
2019-01-13T03:21:15.086Z,99.90
2019-01-13T03:22:58.305Z,99.90
2019-01-13T03:24:41.524Z,99.90
2019-01-13T03:26:24.748Z,99.90
2019-01-13T03:28:07.955Z,99.90
2019-01-13T03:29:51.242Z,99.90
2019-01-13T03:31:34.531Z,99.90
2019-01-13T03:33:17.767Z,99.90
2019-01-13T03:35:00.992Z,99.90
2019-01-13T03:36:44.199Z,99.90
2019-01-13T03:38:28.070Z,99.90
2019-01-13T03:40:14.452Z,99.90
2019-01-13T03:41:57.718Z,99.90
2019-01-13T03:43:41.440Z,99.90
2019-01-13T03:45:24.687Z,99.90
2019-01-13T03:47:07.908Z,99.90
2019-01-13T03:48:51.159Z,99.90
2019-01-13T03:50:35.050Z,99.90
2019-01-13T03:52:18.269Z,99.90
2019-01-13T03:54:01.471Z,99.90
2019-01-13T03:55:44.694Z,99.90
2019-01-13T03:57:27.914Z,99.90
2019-01-13T03:59:11.127Z,99.90
2019-01-13T04:00:54.346Z,99.90
2019-01-13T04:02:37.566Z,99.90
2019-01-13T04:04:20.785Z,99.90
2019-01-13T04:06:04.019Z,99.90
2019-01-13T04:07:47.218Z,99.90
2019-01-13T04:09:30.423Z,99.90
2019-01-13T04:11:13.653Z,99.90
2019-01-13T04:12:56.867Z,99.90
2019-01-13T04:14:40.083Z,99.90
2019-01-13T04:16:23.319Z,99.90
2019-01-13T04:18:06.531Z,99.90
2019-01-13T04:19:49.751Z,99.90
2019-01-13T04:21:33.726Z,99.90
2019-01-13T04:23:16.934Z,99.90
2019-01-13T04:25:00.247Z,99.90
2019-01-13T04:26:43.450Z,99.90
2019-01-13T04:28:26.676Z,99.90
2019-01-13T04:30:12.171Z,99.90
2019-01-13T04:31:55.408Z,99.90
2019-01-13T04:33:38.621Z,99.90
2019-01-13T04:35:21.837Z,99.90
2019-01-13T04:37:05.065Z,99.90
2019-01-13T04:38:48.304Z,99.90
2019-01-13T04:40:31.522Z,99.90
2019-01-13T04:42:14.742Z,99.90
2019-01-13T04:43:57.953Z,99.90
2019-01-13T04:45:41.193Z,99.90
2019-01-13T04:47:24.417Z,99.90
2019-01-13T04:49:07.711Z,99.90
2019-01-13T04:50:50.935Z,99.90
2019-01-13T04:52:34.165Z,99.90
2019-01-13T04:54:17.373Z,99.70
2019-01-13T04:56:00.586Z,99.90
2019-01-13T04:57:43.805Z,99.90
2019-01-13T04:59:27.020Z,99.50
2019-01-13T05:01:10.240Z,99.80
2019-01-13T05:02:53.463Z,99.70
2019-01-13T05:04:36.683Z,99.70
2019-01-13T05:06:19.885Z,99.30
2019-01-13T05:08:03.124Z,99.00
2019-01-13T05:09:46.342Z,99.00
2019-01-13T05:11:29.552Z,99.20
2019-01-13T05:13:12.782Z,98.90
2019-01-13T05:14:56.003Z,98.90
2019-01-13T05:16:39.231Z,98.80
2019-01-13T05:18:22.482Z,98.70
2019-01-13T05:20:09.218Z,99.20
2019-01-13T05:21:52.439Z,99.50
2019-01-13T05:23:35.666Z,99.30
2019-01-13T05:25:18.887Z,99.20
2019-01-13T05:27:02.099Z,99.60
2019-01-13T05:28:45.329Z,99.40
2019-01-13T05:30:28.555Z,98.90
2019-01-13T05:32:11.755Z,99.10
2019-01-13T05:33:54.999Z,99.10
2019-01-13T05:35:39.174Z,99.30
2019-01-13T05:37:22.390Z,99.20
2019-01-13T05:39:06.623Z,99.10
2019-01-13T05:40:49.846Z,99.20
2019-01-13T05:42:33.067Z,98.90
2019-01-13T05:44:16.295Z,98.90
2019-01-13T05:45:59.511Z,99.10
2019-01-13T05:47:42.738Z,98.90
2019-01-13T05:49:25.951Z,98.80
2019-01-13T05:51:09.187Z,98.90
2019-01-13T05:52:52.798Z,98.90
2019-01-13T05:54:36.035Z,98.70
2019-01-13T05:56:19.358Z,98.70
2019-01-13T05:58:02.579Z,98.80
2019-01-13T05:59:45.902Z,99.00
2019-01-13T06:01:29.117Z,98.80
2019-01-13T06:03:13.000Z,98.80
2019-01-13T06:04:56.246Z,98.80
2019-01-13T06:06:39.479Z,99.00
2019-01-13T06:08:22.691Z,98.90
2019-01-13T06:10:09.110Z,98.70
2019-01-13T06:11:52.348Z,98.60
2019-01-13T06:13:35.558Z,98.70
2019-01-13T06:15:20.740Z,98.70
2019-01-13T06:17:03.979Z,98.90
2019-01-13T06:18:47.199Z,98.70
2019-01-13T06:20:30.431Z,98.70
2019-01-13T06:22:13.643Z,98.30
2019-01-13T06:23:56.857Z,98.70
2019-01-13T06:25:40.191Z,98.90
2019-01-13T06:27:23.402Z,99.20
2019-01-13T06:29:06.618Z,99.20
2019-01-13T06:30:49.912Z,99.70
2019-01-13T06:32:33.114Z,99.70
2019-01-13T06:34:16.322Z,99.60
2019-01-13T06:35:59.569Z,99.80
2019-01-13T06:37:42.775Z,99.90
2019-01-13T06:39:25.982Z,99.90
2019-01-13T06:41:09.211Z,99.90
2019-01-13T06:42:52.422Z,99.90
2019-01-13T06:44:35.635Z,99.90
2019-01-13T06:46:18.863Z,99.90
2019-01-13T06:48:02.075Z,99.90
2019-01-13T06:49:45.294Z,99.90
2019-01-13T06:51:28.548Z,99.90
2019-01-13T06:53:11.755Z,99.90
2019-01-13T06:54:54.965Z,99.90
2019-01-13T06:56:38.200Z,99.90
2019-01-13T06:58:21.434Z,99.90
2019-01-13T07:00:19.331Z,99.90
2019-01-13T07:02:03.495Z,99.90
2019-01-13T07:03:46.895Z,99.90
2019-01-13T07:05:30.103Z,99.90
2019-01-13T07:07:13.327Z,99.90
2019-01-13T07:08:56.543Z,99.90
2019-01-13T07:10:39.771Z,99.90
2019-01-13T07:12:23.027Z,99.90
2019-01-13T07:14:06.252Z,99.90
2019-01-13T07:15:49.509Z,99.90
2019-01-13T07:17:32.778Z,99.90
2019-01-13T07:19:15.992Z,99.90
2019-01-13T07:20:59.236Z,99.90
2019-01-13T07:22:43.092Z,99.90
2019-01-13T07:24:26.363Z,99.90
2019-01-13T07:26:09.577Z,99.90
2019-01-13T07:27:52.803Z,99.90
2019-01-13T07:29:36.014Z,99.90
2019-01-13T07:31:19.272Z,99.90
2019-01-13T07:33:02.492Z,99.90
2019-01-13T07:34:45.701Z,99.90
2019-01-13T07:36:28.938Z,99.90
2019-01-13T07:38:12.148Z,99.90
2019-01-13T07:39:55.813Z,99.90
2019-01-13T07:41:39.033Z,99.90
2019-01-13T07:43:22.264Z,99.90
2019-01-13T07:45:08.684Z,99.90
2019-01-13T07:46:51.892Z,99.90
2019-01-13T07:48:35.181Z,99.90
2019-01-13T07:50:18.714Z,99.90
2019-01-13T07:52:01.931Z,99.90
2019-01-13T07:53:45.183Z,99.90
2019-01-13T07:55:28.444Z,99.90
2019-01-13T07:57:11.661Z,99.90
2019-01-13T07:58:54.906Z,99.90
2019-01-13T08:00:38.118Z,99.90
2019-01-13T08:02:21.323Z,99.90
2019-01-13T08:04:04.558Z,99.90
2019-01-13T08:05:48.183Z,99.90
2019-01-13T08:07:31.415Z,99.90
2019-01-13T08:09:14.698Z,99.90
2019-01-13T08:10:57.927Z,99.90
2019-01-13T08:12:41.144Z,99.90
2019-01-13T08:14:24.373Z,99.90
2019-01-13T08:16:07.579Z,99.90
2019-01-13T08:17:50.863Z,99.90
2019-01-13T08:19:36.938Z,99.90
2019-01-13T08:21:20.328Z,99.90
2019-01-13T08:23:03.543Z,99.90
2019-01-13T08:24:46.780Z,99.90
2019-01-13T08:26:30.007Z,99.90
2019-01-13T08:28:13.290Z,99.90
2019-01-13T08:29:56.516Z,99.90
2019-01-13T08:31:39.740Z,99.90
2019-01-13T08:33:22.956Z,99.90
2019-01-13T08:35:06.195Z,99.90
2019-01-13T08:36:49.408Z,99.90
2019-01-13T08:38:32.629Z,99.90
2019-01-13T08:40:18.476Z,99.90
2019-01-13T08:42:01.694Z,99.90
2019-01-13T08:43:44.903Z,99.90
2019-01-13T08:45:28.140Z,99.90
2019-01-13T08:47:11.351Z,99.90
2019-01-13T08:48:54.571Z,99.90
2019-01-13T08:50:37.795Z,99.90
2019-01-13T08:52:21.002Z,99.90
2019-01-13T08:54:04.224Z,99.90
2019-01-13T08:55:47.447Z,99.90
2019-01-13T08:57:30.677Z,99.90
2019-01-13T08:59:14.021Z,99.90
2019-01-13T09:00:57.289Z,99.90
2019-01-13T09:02:40.495Z,99.90
2019-01-13T09:04:23.722Z,99.90
2019-01-13T09:06:06.982Z,99.90
2019-01-13T09:07:50.197Z,99.90
2019-01-13T09:09:33.411Z,99.90
2019-01-13T09:11:16.649Z,99.90
2019-01-13T09:12:59.867Z,99.90
2019-01-13T09:14:43.116Z,99.90
2019-01-13T09:16:26.341Z,99.90
2019-01-13T09:18:09.553Z,99.90
2019-01-13T09:19:52.767Z,99.90
2019-01-13T09:21:36.093Z,99.90
2019-01-13T09:23:19.303Z,99.90
2019-01-13T09:25:02.524Z,99.90
2019-01-13T09:26:50.931Z,99.90
2019-01-13T09:28:30.676Z,99.90
2019-01-13T09:30:16.679Z,99.90
2019-01-13T09:31:59.949Z,99.90
2019-01-13T09:33:43.295Z,99.90
2019-01-13T09:35:26.827Z,99.90
2019-01-13T09:37:10.254Z,99.90
2019-01-13T09:38:53.670Z,99.90
2019-01-13T09:40:37.121Z,99.90
2019-01-13T09:42:20.546Z,99.90
2019-01-13T09:44:03.986Z,99.90
2019-01-13T09:45:47.333Z,99.90
2019-01-13T09:47:30.592Z,99.90
2019-01-13T09:49:13.815Z,99.90
2019-01-13T09:50:57.021Z,99.90
2019-01-13T09:52:40.264Z,99.90
2019-01-13T09:54:23.519Z,99.90
2019-01-13T09:56:06.788Z,99.90
2019-01-13T09:57:50.018Z,99.90
2019-01-13T09:59:33.252Z,99.90
2019-01-13T10:01:16.488Z,99.90
2019-01-13T10:02:59.734Z,99.90
2019-01-13T10:04:43.014Z,99.90
2019-01-13T10:06:26.279Z,99.90
2019-01-13T10:08:09.540Z,99.90
2019-01-13T10:09:52.735Z,99.90
2019-01-13T10:11:35.955Z,99.90
2019-01-13T10:13:19.187Z,99.90
2019-01-13T10:15:02.399Z,99.90
2019-01-13T10:16:45.611Z,99.90
2019-01-13T10:18:28.851Z,99.90
2019-01-13T10:20:13.702Z,99.90
2019-01-13T10:21:58.009Z,99.90
2019-01-13T10:23:41.246Z,99.90
2019-01-13T10:25:24.463Z,99.90
2019-01-13T10:27:07.675Z,99.90
2019-01-13T10:28:50.962Z,99.90
2019-01-13T10:30:35.389Z,99.90
2019-01-13T10:32:18.770Z,99.90
2019-01-13T10:34:02.236Z,99.90
2019-01-13T10:35:45.533Z,99.90
2019-01-13T10:37:28.774Z,99.90
2019-01-13T10:39:12.098Z,99.90
2019-01-13T10:40:55.549Z,99.90
2019-01-13T10:42:38.824Z,99.90
2019-01-13T10:44:22.131Z,99.90
2019-01-13T10:46:05.423Z,99.90
2019-01-13T10:47:49.482Z,99.90
2019-01-13T10:49:32.707Z,99.90
2019-01-13T10:51:15.931Z,99.90
2019-01-13T10:53:00.633Z,99.90
2019-01-13T10:54:43.887Z,99.90
2019-01-13T10:56:27.108Z,99.90
2019-01-13T10:58:10.481Z,99.90
2019-01-13T10:59:53.711Z,99.90
2019-01-13T11:01:37.064Z,99.90
2019-01-13T11:03:20.354Z,99.90
2019-01-13T11:05:03.662Z,99.90
2019-01-13T11:06:46.947Z,99.90
2019-01-13T11:08:30.236Z,99.90
2019-01-13T11:10:15.624Z,99.90
2019-01-13T11:11:58.833Z,99.90
2019-01-13T11:13:42.043Z,99.90
2019-01-13T11:15:25.296Z,99.90
2019-01-13T11:17:08.498Z,99.90
2019-01-13T11:18:51.723Z,99.90
2019-01-13T11:20:35.367Z,99.90
2019-01-13T11:22:18.598Z,99.90
2019-01-13T11:24:02.465Z,99.90
2019-01-13T11:25:45.839Z,99.90
2019-01-13T11:27:29.294Z,99.90
2019-01-13T11:29:12.790Z,99.90
2019-01-13T11:30:56.098Z,99.90
2019-01-13T11:32:39.556Z,99.90
2019-01-13T11:34:22.807Z,99.90
2019-01-13T11:36:06.106Z,99.90
2019-01-13T11:37:49.556Z,99.90
2019-01-13T11:39:32.779Z,99.90
2019-01-13T11:41:16.286Z,99.90
2019-01-13T11:42:59.812Z,99.90
2019-01-13T11:44:43.079Z,99.90
2019-01-13T11:46:26.331Z,99.90
2019-01-13T11:48:09.757Z,99.90
2019-01-13T11:49:53.096Z,99.90
2019-01-13T11:51:39.169Z,99.90
2019-01-13T11:53:22.516Z,99.90
2019-01-13T11:55:08.742Z,99.90
2019-01-13T11:56:51.950Z,99.90
2019-01-13T11:58:35.223Z,99.90
2019-01-13T12:00:24.463Z,99.90
2019-01-13T12:02:07.734Z,99.90
2019-01-13T12:03:50.934Z,99.90
2019-01-13T12:05:36.353Z,99.90
2019-01-13T12:07:19.560Z,99.90
2019-01-13T12:09:02.791Z,99.90
2019-01-13T12:10:46.020Z,99.90
2019-01-13T12:12:29.241Z,99.90
2019-01-13T12:14:12.446Z,99.90
2019-01-13T12:15:55.683Z,99.90
2019-01-13T12:17:38.895Z,99.90
2019-01-13T12:19:22.106Z,99.90
2019-01-13T12:21:05.343Z,99.90
2019-01-13T12:22:48.637Z,99.90
2019-01-13T12:24:31.856Z,99.90
2019-01-13T12:26:15.075Z,99.90
2019-01-13T12:27:58.289Z,99.90
2019-01-13T12:29:41.517Z,99.90
2019-01-13T12:31:24.769Z,99.90
2019-01-13T12:33:07.987Z,99.90
2019-01-13T12:34:51.206Z,99.90
2019-01-13T12:36:34.445Z,99.90
2019-01-13T12:38:17.655Z,99.90
2019-01-13T12:40:00.927Z,99.90
2019-01-13T12:41:44.166Z,99.90
2019-01-13T12:43:27.385Z,99.90
2019-01-13T12:45:13.350Z,99.90
2019-01-13T12:46:56.583Z,99.90
2019-01-13T12:48:39.800Z,99.90
2019-01-13T12:50:25.709Z,99.90
2019-01-13T12:52:08.927Z,99.90
2019-01-13T12:53:52.146Z,99.90
2019-01-13T12:55:35.428Z,99.90
2019-01-13T12:57:18.683Z,99.90
2019-01-13T12:59:01.908Z,99.90
2019-01-13T13:00:45.150Z,99.90
2019-01-13T13:02:28.367Z,99.90
2019-01-13T13:04:11.771Z,99.90
2019-01-13T13:05:54.987Z,99.90
2019-01-13T13:07:39.169Z,99.90
2019-01-13T13:09:22.523Z,99.90
2019-01-13T13:11:05.860Z,99.90
2019-01-13T13:12:49.066Z,99.90
2019-01-13T13:14:32.292Z,99.90
2019-01-13T13:16:15.514Z,99.90
2019-01-13T13:17:58.746Z,99.90
2019-01-13T13:19:41.948Z,99.90
2019-01-13T13:21:25.180Z,99.90
2019-01-13T13:23:08.471Z,99.90
2019-01-13T13:24:52.016Z,99.90
2019-01-13T13:26:35.295Z,99.90
2019-01-13T13:28:19.194Z,99.90
2019-01-13T13:30:02.547Z,99.90
2019-01-13T13:31:45.835Z,99.90
2019-01-13T13:33:29.134Z,99.90
2019-01-13T13:35:12.435Z,99.90
2019-01-13T13:36:55.808Z,99.90
2019-01-13T13:38:39.157Z,99.90
2019-01-13T13:40:26.626Z,99.90
2019-01-13T13:42:09.885Z,99.90
2019-01-13T13:43:53.252Z,99.90
2019-01-13T13:45:36.463Z,99.90
2019-01-13T13:47:19.950Z,99.90
2019-01-13T13:49:03.212Z,99.90
2019-01-13T13:50:46.423Z,99.90
2019-01-13T13:52:29.694Z,99.90
2019-01-13T13:54:12.996Z,99.90
2019-01-13T13:55:56.343Z,99.90
2019-01-13T13:57:39.565Z,99.90
2019-01-13T13:59:22.785Z,99.90
2019-01-13T14:01:06.000Z,99.90
2019-01-13T14:02:49.215Z,99.90
2019-01-13T14:04:32.442Z,99.90
2019-01-13T14:06:15.655Z,99.90
2019-01-13T14:07:59.467Z,99.90
2019-01-13T14:09:42.696Z,99.90
2019-01-13T14:11:26.036Z,99.90
2019-01-13T14:13:09.357Z,99.90
2019-01-13T14:14:52.663Z,99.90
2019-01-13T14:16:36.062Z,99.90
2019-01-13T14:18:19.329Z,99.90
2019-01-13T14:20:02.645Z,99.90
2019-01-13T14:21:45.954Z,99.90
2019-01-13T14:23:29.323Z,99.90
2019-01-13T14:25:12.641Z,99.90
2019-01-13T14:26:55.923Z,99.90
2019-01-13T14:28:39.204Z,99.90
2019-01-13T14:30:24.544Z,99.90
2019-01-13T14:32:07.756Z,99.90
2019-01-13T14:33:53.046Z,99.90
2019-01-13T14:35:36.500Z,99.90
2019-01-13T14:37:19.722Z,99.90
2019-01-13T14:39:02.955Z,99.90
2019-01-13T14:40:46.221Z,99.90
2019-01-13T14:42:29.494Z,99.90
2019-01-13T14:44:12.803Z,99.90
2019-01-13T14:45:56.039Z,99.90
2019-01-13T14:47:39.278Z,99.90
2019-01-13T14:49:22.518Z,99.90
2019-01-13T14:51:05.827Z,99.90
2019-01-13T14:52:49.287Z,99.90
2019-01-13T14:54:32.520Z,99.90
2019-01-13T14:56:15.752Z,99.90
2019-01-13T14:57:58.977Z,99.90
2019-01-13T14:59:42.204Z,99.90
2019-01-13T15:01:25.447Z,99.90
2019-01-13T15:03:09.038Z,99.90
2019-01-13T15:04:52.250Z,99.90
2019-01-13T15:06:35.494Z,99.90
2019-01-13T15:08:18.898Z,99.90
2019-01-13T15:10:02.194Z,99.90
2019-01-13T15:11:45.440Z,99.90
2019-01-13T15:13:28.647Z,99.90
2019-01-13T15:15:13.718Z,99.90
2019-01-13T15:16:56.939Z,99.90
2019-01-13T15:18:40.415Z,99.90
2019-01-13T15:20:23.922Z,99.90
2019-01-13T15:22:07.136Z,99.90
2019-01-13T15:23:50.384Z,99.90
2019-01-13T15:25:33.639Z,99.90
2019-01-13T15:27:16.881Z,99.90
2019-01-13T15:29:00.241Z,99.90
2019-01-13T15:30:43.526Z,99.90
2019-01-13T15:32:26.803Z,99.90
2019-01-13T15:34:10.423Z,99.90
2019-01-13T15:35:54.079Z,99.90
2019-01-13T15:37:37.407Z,99.90
2019-01-13T15:39:20.652Z,99.90
2019-01-13T15:41:03.867Z,99.90
2019-01-13T15:42:47.079Z,99.90
2019-01-13T15:44:30.346Z,99.90
2019-01-13T15:46:13.563Z,99.90
2019-01-13T15:47:56.776Z,99.90
2019-01-13T15:49:40.101Z,99.90
2019-01-13T15:51:23.423Z,99.90
2019-01-13T15:53:06.965Z,99.90
2019-01-13T15:54:50.763Z,99.90
2019-01-13T15:56:33.977Z,99.90
2019-01-13T15:58:17.759Z,99.90
2019-01-13T16:00:03.987Z,99.90
2019-01-13T16:01:48.570Z,99.90
2019-01-13T16:03:31.840Z,99.90
2019-01-13T16:05:15.071Z,99.90
2019-01-13T16:06:58.278Z,99.90
2019-01-13T16:08:41.570Z,99.90
2019-01-13T16:10:26.134Z,99.90
2019-01-13T16:12:09.453Z,99.90
2019-01-13T16:13:52.707Z,99.90
2019-01-13T16:15:35.954Z,99.90
2019-01-13T16:17:19.275Z,99.90
2019-01-13T16:19:02.491Z,99.90
2019-01-13T16:20:45.989Z,99.90
2019-01-13T16:22:29.207Z,99.90
2019-01-13T16:24:12.421Z,99.90
2019-01-13T16:25:55.635Z,99.90
2019-01-13T16:27:39.991Z,99.90
2019-01-13T16:29:23.209Z,99.90
2019-01-13T16:31:06.430Z,99.90
2019-01-13T16:32:49.659Z,99.90
2019-01-13T16:34:32.926Z,99.90
2019-01-13T16:36:16.161Z,99.90
2019-01-13T16:37:59.366Z,99.90
2019-01-13T16:39:42.582Z,99.90
2019-01-13T16:41:25.826Z,99.90
2019-01-13T16:43:09.038Z,99.90
2019-01-13T16:44:52.251Z,99.90
2019-01-13T16:46:35.480Z,99.90
2019-01-13T16:48:18.682Z,99.90
2019-01-13T16:50:01.900Z,99.90
2019-01-13T16:51:45.120Z,99.90
2019-01-13T16:53:28.346Z,99.90
2019-01-13T16:55:11.811Z,99.90
2019-01-13T16:56:55.045Z,99.90
2019-01-13T16:58:38.280Z,99.90
2019-01-13T17:00:27.003Z,99.90
2019-01-13T17:02:10.247Z,99.90
2019-01-13T17:03:53.459Z,99.90
2019-01-13T17:05:36.760Z,99.90
2019-01-13T17:07:20.433Z,99.90
2019-01-13T17:09:06.924Z,99.90
2019-01-13T17:10:50.223Z,99.90
2019-01-13T17:12:33.444Z,99.90
2019-01-13T17:14:16.652Z,99.90
2019-01-13T17:15:59.899Z,99.90
2019-01-13T17:17:43.119Z,99.90
2019-01-13T17:19:26.477Z,99.90
2019-01-13T17:21:09.713Z,99.90
2019-01-13T17:22:52.931Z,99.90
2019-01-13T17:26:10.942Z,99.90
2019-01-13T17:27:54.227Z,99.90
2019-01-13T17:29:37.451Z,99.90
2019-01-13T17:31:20.703Z,99.90
2019-01-13T17:33:03.897Z,99.90
2019-01-13T17:34:47.125Z,99.90
2019-01-13T17:36:30.575Z,99.90
2019-01-13T17:38:13.798Z,99.90
2019-01-13T17:39:57.057Z,99.90
2019-01-13T17:41:40.284Z,99.90
2019-01-13T17:43:23.491Z,99.90
2019-01-13T17:45:12.799Z,99.90
2019-01-13T17:46:56.077Z,99.90
2019-01-13T17:48:39.369Z,99.90
2019-01-13T17:50:23.937Z,99.90
2019-01-13T17:52:07.161Z,99.90
2019-01-13T17:53:50.399Z,99.90
2019-01-13T17:55:33.598Z,99.90
2019-01-13T17:57:16.847Z,99.90
2019-01-13T17:59:00.131Z,99.90
2019-01-13T18:00:49.257Z,99.90
2019-01-13T18:02:32.519Z,99.90
2019-01-13T18:04:15.733Z,99.90
2019-01-13T18:05:59.020Z,99.90
2019-01-13T18:07:42.607Z,99.90
2019-01-13T18:09:25.870Z,99.90
2019-01-13T18:11:09.227Z,99.90
2019-01-13T18:12:52.469Z,99.90
2019-01-13T18:14:35.696Z,99.90
2019-01-13T18:16:18.911Z,99.90
2019-01-13T18:18:02.197Z,99.90
2019-01-13T18:19:45.414Z,99.90
2019-01-13T18:21:28.640Z,99.90
2019-01-13T18:23:11.868Z,99.90
2019-01-13T18:24:55.112Z,99.90
2019-01-13T18:26:38.346Z,99.90
2019-01-13T18:28:41.635Z,99.90
2019-01-13T18:30:26.591Z,99.90
2019-01-13T18:32:09.864Z,99.90
2019-01-13T18:33:53.137Z,99.90
2019-01-13T18:35:36.349Z,99.90
2019-01-13T18:37:19.585Z,99.90
2019-01-13T18:39:03.061Z,99.90
2019-01-13T18:40:46.339Z,99.90
2019-01-13T18:42:29.583Z,99.90
2019-01-13T18:44:12.846Z,99.90
2019-01-13T18:45:56.146Z,99.80
2019-01-13T18:47:39.394Z,99.70
2019-01-13T18:49:22.628Z,99.70
2019-01-13T18:51:05.855Z,99.50
2019-01-13T18:52:55.391Z,99.80
2019-01-13T18:54:38.999Z,99.30
2019-01-13T18:56:22.268Z,99.30
2019-01-13T18:58:05.496Z,98.70
2019-01-13T18:59:48.846Z,99.40
2019-01-13T19:02:25.995Z,99.00
2019-01-13T19:04:09.440Z,98.80
2019-01-13T19:05:52.803Z,98.20
2019-01-13T19:07:36.025Z,98.70
2019-01-13T19:09:19.243Z,98.40
2019-01-13T19:11:05.754Z,98.50
2019-01-13T19:12:52.239Z,99.10
2019-01-13T19:14:35.455Z,98.90
2019-01-13T19:16:21.217Z,98.60
2019-01-13T19:18:04.680Z,98.30
2019-01-13T19:19:47.916Z,98.60
2019-01-13T19:21:31.750Z,98.80
2019-01-13T19:23:15.015Z,98.60
2019-01-13T19:24:58.298Z,98.50
2019-01-13T19:26:41.576Z,98.40
2019-01-13T19:28:24.798Z,98.50
2019-01-13T19:30:11.320Z,98.30
2019-01-13T19:31:54.619Z,97.80
2019-01-13T19:33:37.822Z,97.10
2019-01-13T19:35:21.129Z,97.90
2019-01-13T19:37:04.335Z,97.50
2019-01-13T19:38:47.708Z,96.80
2019-01-13T19:40:31.008Z,96.60
2019-01-13T19:42:14.302Z,96.80
2019-01-13T19:43:57.776Z,97.00
2019-01-13T19:45:41.037Z,96.80
2019-01-13T19:47:24.263Z,96.60
2019-01-13T19:49:07.572Z,97.10
2019-01-13T19:50:50.865Z,97.20
2019-01-13T19:52:34.153Z,96.80
2019-01-13T19:54:17.401Z,97.00
2019-01-13T19:56:00.694Z,97.60
2019-01-13T19:57:43.924Z,96.80
2019-01-13T19:59:28.766Z,96.20
2019-01-13T20:01:12.047Z,95.90
2019-01-13T20:02:55.266Z,95.70
2019-01-13T20:04:38.512Z,96.00
2019-01-13T20:06:21.726Z,96.80
2019-01-13T20:08:05.300Z,97.20
2019-01-13T20:09:48.589Z,98.00
2019-01-13T20:11:31.909Z,98.00
2019-01-13T20:13:15.202Z,97.20
2019-01-13T20:14:58.672Z,95.90
2019-01-13T20:16:43.239Z,96.40
2019-01-13T20:18:26.587Z,97.00
2019-01-13T20:20:12.565Z,96.30
2019-01-13T20:21:55.788Z,97.40
2019-01-13T20:23:39.013Z,97.30
2019-01-13T20:25:22.242Z,97.80
2019-01-13T20:27:05.496Z,98.80
2019-01-13T20:28:48.715Z,98.70
2019-01-13T20:30:33.481Z,99.30
2019-01-13T20:32:16.699Z,99.90
2019-01-13T20:33:59.925Z,99.90
2019-01-13T20:35:43.170Z,99.90
2019-01-13T20:37:26.378Z,99.90
2019-01-13T20:39:10.076Z,99.90
2019-01-13T20:40:53.343Z,99.80
2019-01-13T20:42:36.560Z,99.90
2019-01-13T20:44:19.891Z,99.90
2019-01-13T20:46:03.196Z,99.90
2019-01-13T20:47:46.481Z,99.90
2019-01-13T20:49:37.366Z,99.90
2019-01-13T20:51:20.648Z,99.90
2019-01-13T20:53:03.936Z,99.90
2019-01-13T20:54:47.236Z,99.50
2019-01-13T20:56:30.682Z,99.70
2019-01-13T20:58:13.977Z,99.30
2019-01-13T21:00:00.237Z,99.40
2019-01-13T21:01:43.933Z,99.40
2019-01-13T21:03:27.482Z,99.70
2019-01-13T21:05:10.681Z,99.90
2019-01-13T21:06:54.116Z,99.90
2019-01-13T21:08:37.383Z,99.90
2019-01-13T21:10:21.113Z,99.90
2019-01-13T21:12:04.661Z,99.90
2019-01-13T21:13:47.893Z,99.80
2019-01-13T21:15:33.876Z,99.90
2019-01-13T21:17:17.216Z,99.90
2019-01-13T21:19:00.538Z,99.90
2019-01-13T21:20:43.803Z,99.90
2019-01-13T21:22:27.129Z,99.80
2019-01-13T21:24:10.471Z,99.90
2019-01-13T21:25:53.691Z,99.90
2019-01-13T21:27:37.033Z,99.90
2019-01-13T21:29:20.289Z,99.90
2019-01-13T21:31:03.526Z,99.90
2019-01-13T21:32:46.765Z,99.90
2019-01-13T21:34:30.967Z,99.90
2019-01-13T21:36:14.186Z,99.90
2019-01-13T21:37:57.453Z,99.90
2019-01-13T21:39:41.289Z,99.90
2019-01-13T21:41:24.662Z,99.90
2019-01-13T21:43:08.090Z,99.90
2019-01-13T21:44:51.302Z,99.90
2019-01-13T21:46:34.523Z,99.90
2019-01-13T21:48:17.773Z,99.90
2019-01-13T21:50:01.986Z,99.90
2019-01-13T21:51:45.296Z,99.90
2019-01-13T21:53:28.559Z,99.70
2019-01-13T21:55:13.530Z,99.60
2019-01-13T21:56:56.948Z,99.40
2019-01-13T21:58:40.293Z,98.90
2019-01-13T22:00:26.289Z,99.60
2019-01-13T22:02:09.585Z,99.90
2019-01-13T22:03:52.818Z,98.90
2019-01-13T22:05:41.020Z,99.30
2019-01-13T22:07:21.001Z,99.60
2019-01-13T22:09:08.711Z,99.30
2019-01-13T22:10:51.913Z,99.20
2019-01-13T22:12:35.158Z,99.10
2019-01-13T22:14:18.420Z,99.20
2019-01-13T22:16:01.625Z,99.50